Time;durP1;ratioP1;P1;durP2;ratioP2;P2;SDS_P1;SDS_P2;PMS_P1;PMS_P2;Temp;Humidity;BMP_temperature;BMP_pressure;BME280_temperature;BME280_humidity;BME280_pressure;Samples;Min_cycle;Max_cycle;Signal;HPM_P1;HPM_P2
2021/11/11 00:00:38;;;;;;;;;;;;;;;;;;2123741;28;20435;-43
2021/11/11 00:01:40;;;;;;;;;;;;;;;;;;2122195;28;19984;-43
2021/11/11 00:02:41;;;;;;;;;;;;;;;;;;2122944;27;19928;-43
2021/11/11 00:03:42;;;;;;;;;;;;;;;;;;2122195;28;19923;-43
2021/11/11 00:04:43;;;;;;;;;;;;;;;;;;2122178;27;19924;-43
2021/11/11 00:05:44;;;;;;;;;;;;;;;;;;2121324;27;19924;-43
2021/11/11 00:06:45;;;;;;;;;;;;;;;;;;2115091;28;20011;-43
2021/11/11 00:07:46;;;;;;;;;;;;;;;;;;2117762;27;20325;-44
2021/11/11 00:08:47;;;;;;;;;;;;;;;;;;2123450;28;19934;-43
2021/11/11 00:09:47;;;;;;;;;;;;;;;;;;2123812;28;20331;-43
2021/11/11 00:10:48;;;;;;;;;;;;;;;;;;2123423;27;20284;-43
2021/11/11 00:11:49;;;;;;;;;;;;;;;;;;2118828;27;19934;-43
2021/11/11 00:12:51;;;;;;;;;;;;;;;;;;2115173;28;19930;-43
2021/11/11 00:13:52;;;;;;;;;;;;;;;;;;2120637;27;20085;-43
2021/11/11 00:14:52;;;;;;;;;;;;;;;;;;2124043;27;19931;-44
2021/11/11 00:15:53;;;;;;;;;;;;;;;;;;2123613;28;20321;-44
2021/11/11 00:16:54;;;;;;;;;;;;;;;;;;2121464;27;19923;-44
2021/11/11 00:17:55;;;;;;;;;;;;;;;;;;2123289;28;19927;-44
2021/11/11 00:18:56;;;;;;;;;;;;;;;;;;2123568;28;19923;-43
2021/11/11 00:19:57;;;;;;;;;;;;;;;;;;2124701;27;19927;-44
2021/11/11 00:20:58;;;;;;;;;;;;;;;;;;2115646;28;20006;-44
2021/11/11 00:21:59;;;;;;;;;;;;;;;;;;2115068;28;19927;-44
2021/11/11 00:23:00;;;;;;;;;;;;;;;;;;2121026;27;20039;-43
2021/11/11 00:24:01;;;;;;;;;;;;;;;;;;2132164;27;19986;-44
2021/11/11 00:25:01;;;;;;;;;;;;;;;;;;2132190;27;20371;-43
2021/11/11 00:26:02;;;;;;;;;;;;;;;;;;2122867;27;19968;-43
2021/11/11 00:27:03;;;;;;;;;;;;;;;;;;2123500;28;19923;-44
2021/11/11 00:28:05;;;;;;;;;;;;;;;;;;2123636;28;19934;-44
2021/11/11 00:29:05;;;;;;;;;;;;;;;;;;2123845;27;19923;-44
2021/11/11 00:30:06;;;;;;;;;;;;;;;;;;2132246;27;20019;-44
2021/11/11 00:31:07;;;;;;;;;;;;;;;;;;2131164;27;19923;-43
2021/11/11 00:32:08;;;;;;;;;;;;;;;;;;2122721;27;20123;-44
2021/11/11 00:33:09;;;;;;;;;;;;;;;;;;2114967;28;19965;-44
2021/11/11 00:34:09;;;;;;;;;;;;;;;;;;2115735;28;20113;-43
2021/11/11 00:35:10;;;;;;;;;;;;;;;;;;2124266;27;19927;-44
2021/11/11 00:36:11;;;;;;;;;;;;;;;;;;2132016;27;19927;-44
2021/11/11 00:37:12;;;;;;;;;;;;;;;;;;2129036;27;19923;-43
2021/11/11 00:38:13;;;;;;;;;;;;;;;;;;2122222;27;19923;-44
2021/11/11 00:39:14;;;;;;;;;;;;;;;;;;2123425;28;19976;-43
2021/11/11 00:40:15;;;;;;;;;;;;;;;;;;2121703;28;19924;-43
2021/11/11 00:41:16;;;;;;;;;;;;;;;;;;2118044;28;19930;-44
2021/11/11 00:42:18;;;;;;;;;;;;;;;;;;2114877;28;19923;-44
2021/11/11 00:43:19;;;;;;;;;;;;;;;;;;2117133;27;19958;-44
2021/11/11 00:44:20;;;;;;;;;;;;;;;;;;2121984;27;19923;-44
2021/11/11 00:45:22;;;;;;;;;;;;;;;;;;2123501;28;20023;-43
2021/11/11 00:46:23;;;;;;;;;;;;;;;;;;2121029;27;19924;-43
2021/11/11 00:47:24;;;;;;;;;;;;;;;;;;2121467;28;19974;-43
2021/11/11 00:48:24;;;;;;;;;;;;;;;;;;2123441;28;20384;-43
2021/11/11 00:49:25;;;;;;;;;;;;;;;;;;2121217;28;19924;-44
2021/11/11 00:50:26;;;;;;;;;;;;;;;;;;2116862;28;19928;-44
2021/11/11 00:51:27;;;;;;;;;;;;;;;;;;2115040;28;19938;-43
2021/11/11 00:52:28;;;;;;;;;;;;;;;;;;2120906;27;19931;-44
2021/11/11 00:53:29;;;;;;;;;;;;;;;;;;2123437;27;20424;-44
2021/11/11 00:54:30;;;;;;;;;;;;;;;;;;2123534;28;19977;-44
2021/11/11 00:55:31;;;;;;;;;;;;;;;;;;2123830;27;20371;-43
2021/11/11 00:56:31;;;;;;;;;;;;;;;;;;2123328;28;19928;-44
2021/11/11 00:57:32;;;;;;;;;;;;;;;;;;2123142;28;19969;-44
2021/11/11 00:58:33;;;;;;;;;;;;;;;;;;2120921;27;19924;-44
2021/11/11 00:59:34;;;;;;;;;;;;;;;;;;2123332;28;19946;-43
2021/11/11 01:00:36;;;;;;;;;;;;;;;;;;2123364;28;19923;-43
2021/11/11 01:01:37;;;;;;;;;;;;;;;;;;2122498;27;20585;-44
2021/11/11 01:02:39;;;;;;;;;;;;;;;;;;2131797;27;19923;-43
2021/11/11 01:03:40;;;;;;;;;;;;;;;;;;2115208;27;20376;-43
2021/11/11 01:04:41;;;;;;;;;;;;;;;;;;2123070;27;19982;-44
2021/11/11 01:05:42;;;;;;;;;;;;;;;;;;2131967;27;20014;-44
2021/11/11 01:06:43;;;;;;;;;;;;;;;;;;2130807;27;19923;-43
2021/11/11 01:07:44;;;;;;;;;;;;;;;;;;2121344;27;20389;-43
2021/11/11 01:08:45;;;;;;;;;;;;;;;;;;2123264;28;20366;-44
2021/11/11 01:09:45;;;;;;;;;;;;;;;;;;2122803;28;19924;-43
2021/11/11 01:10:46;;;;;;;;;;;;;;;;;;2121278;27;20353;-43
2021/11/11 01:11:47;;;;;;;;;;;;;;;;;;2123174;28;19924;-44
2021/11/11 01:12:49;;;;;;;;;;;;;;;;;;2120688;28;20262;-43
2021/11/11 01:13:50;;;;;;;;;;;;;;;;;;2126667;27;19930;-44
2021/11/11 01:14:51;;;;;;;;;;;;;;;;;;2131815;27;19927;-43
2021/11/11 01:15:51;;;;;;;;;;;;;;;;;;2127039;27;19980;-43
2021/11/11 01:16:53;;;;;;;;;;;;;;;;;;2125810;27;19923;-42
2021/11/11 01:17:54;;;;;;;;;;;;;;;;;;2131761;27;20018;-43
2021/11/11 01:18:55;;;;;;;;;;;;;;;;;;2126390;27;19979;-43
2021/11/11 01:19:56;;;;;;;;;;;;;;;;;;2121934;27;19950;-45
2021/11/11 01:20:57;;;;;;;;;;;;;;;;;;2123224;28;20430;-44
2021/11/11 01:21:58;;;;;;;;;;;;;;;;;;2122435;27;19924;-43
2021/11/11 01:22:59;;;;;;;;;;;;;;;;;;2119135;27;20380;-43
2021/11/11 01:23:59;;;;;;;;;;;;;;;;;;2114859;28;19935;-44
2021/11/11 01:25:00;;;;;;;;;;;;;;;;;;2119282;27;20346;-44
2021/11/11 01:26:02;;;;;;;;;;;;;;;;;;2117688;27;19935;-44
2021/11/11 01:27:03;;;;;;;;;;;;;;;;;;2114618;28;20010;-43
2021/11/11 01:28:04;;;;;;;;;;;;;;;;;;2117916;27;19996;-44
2021/11/11 01:29:05;;;;;;;;;;;;;;;;;;2131226;27;19923;-43
2021/11/11 01:30:06;;;;;;;;;;;;;;;;;;2132102;27;19923;-45
2021/11/11 01:31:07;;;;;;;;;;;;;;;;;;2124142;27;20287;-44
2021/11/11 01:32:07;;;;;;;;;;;;;;;;;;2115328;28;19924;-44
2021/11/11 01:33:08;;;;;;;;;;;;;;;;;;2114723;28;19924;-44
2021/11/11 01:34:09;;;;;;;;;;;;;;;;;;2122512;27;20333;-44
2021/11/11 01:35:12;;;;;;;;;;;;;;;;;;2114777;28;19924;-44
2021/11/11 01:36:13;;;;;;;;;;;;;;;;;;2114591;28;20018;-43
2021/11/11 01:37:14;;;;;;;;;;;;;;;;;;2121557;27;20367;-44
2021/11/11 01:38:16;;;;;;;;;;;;;;;;;;2131580;27;19929;-44
2021/11/11 01:39:17;;;;;;;;;;;;;;;;;;2131815;27;20010;-44
2021/11/11 01:40:18;;;;;;;;;;;;;;;;;;2119701;27;20012;-44
2021/11/11 01:41:18;;;;;;;;;;;;;;;;;;2123127;28;19923;-44
2021/11/11 01:42:19;;;;;;;;;;;;;;;;;;2122590;28;19923;-43
2021/11/11 01:43:20;;;;;;;;;;;;;;;;;;2122241;27;19928;-44
2021/11/11 01:44:21;;;;;;;;;;;;;;;;;;2123244;28;20007;-43
2021/11/11 01:45:22;;;;;;;;;;;;;;;;;;2122721;28;20303;-44
2021/11/11 01:46:23;;;;;;;;;;;;;;;;;;2121043;27;20364;-44
2021/11/11 01:47:23;;;;;;;;;;;;;;;;;;2123069;28;19924;-44
2021/11/11 01:48:26;;;;;;;;;;;;;;;;;;2122097;28;19923;-43
2021/11/11 01:49:27;;;;;;;;;;;;;;;;;;2126770;27;20436;-44
2021/11/11 01:50:28;;;;;;;;;;;;;;;;;;2131727;27;19976;-45
2021/11/11 01:51:30;;;;;;;;;;;;;;;;;;2126811;27;20280;-43
2021/11/11 01:52:31;;;;;;;;;;;;;;;;;;2121219;28;19982;-44
2021/11/11 01:53:32;;;;;;;;;;;;;;;;;;2123112;28;20376;-44
2021/11/11 01:54:33;;;;;;;;;;;;;;;;;;2121939;27;20355;-43
2021/11/11 01:55:33;;;;;;;;;;;;;;;;;;2122297;27;19935;-44
2021/11/11 01:56:34;;;;;;;;;;;;;;;;;;2123067;28;19931;-43
2021/11/11 01:57:35;;;;;;;;;;;;;;;;;;2120799;28;20329;-43
2021/11/11 01:58:36;;;;;;;;;;;;;;;;;;2129545;27;20336;-44
2021/11/11 01:59:37;;;;;;;;;;;;;;;;;;2131592;27;19923;-43
2021/11/11 02:00:47;;;;;;;;;;;;;;;;;;2123099;27;20341;-43
2021/11/11 02:01:49;;;;;;;;;;;;;;;;;;2131396;27;19930;-43
2021/11/11 02:02:50;;;;;;;;;;;;;;;;;;2129507;27;19923;-43
2021/11/11 02:03:51;;;;;;;;;;;;;;;;;;2121783;27;19972;-44
2021/11/11 02:04:52;;;;;;;;;;;;;;;;;;2122859;28;19924;-44
2021/11/11 02:05:53;;;;;;;;;;;;;;;;;;2122974;28;19924;-43
2021/11/11 02:06:54;;;;;;;;;;;;;;;;;;2120231;27;19984;-44
2021/11/11 02:07:54;;;;;;;;;;;;;;;;;;2123027;28;19923;-44
2021/11/11 02:08:55;;;;;;;;;;;;;;;;;;2123123;28;19976;-43
2021/11/11 02:09:56;;;;;;;;;;;;;;;;;;2120242;27;19931;-43
2021/11/11 02:10:57;;;;;;;;;;;;;;;;;;2131665;27;19928;-43
2021/11/11 02:11:58;;;;;;;;;;;;;;;;;;2130472;27;20060;-43
2021/11/11 02:12:59;;;;;;;;;;;;;;;;;;2119062;28;19953;-43
2021/11/11 02:14:00;;;;;;;;;;;;;;;;;;2114476;28;20036;-44
2021/11/11 02:15:00;;;;;;;;;;;;;;;;;;2115062;28;19924;-43
2021/11/11 02:16:01;;;;;;;;;;;;;;;;;;2124656;27;19927;-43
2021/11/11 02:17:02;;;;;;;;;;;;;;;;;;2131610;27;20562;-43
2021/11/11 02:18:03;;;;;;;;;;;;;;;;;;2129041;27;19961;-43
2021/11/11 02:19:05;;;;;;;;;;;;;;;;;;2118237;28;19924;-44
2021/11/11 02:20:06;;;;;;;;;;;;;;;;;;2114487;28;20138;-43
2021/11/11 02:21:07;;;;;;;;;;;;;;;;;;2115201;28;19923;-43
2021/11/11 02:22:07;;;;;;;;;;;;;;;;;;2122521;27;20277;-44
2021/11/11 02:23:10;;;;;;;;;;;;;;;;;;2122836;28;19931;-43
2021/11/11 02:24:11;;;;;;;;;;;;;;;;;;2121615;27;19976;-43
2021/11/11 02:25:12;;;;;;;;;;;;;;;;;;2120075;27;19927;-43
2021/11/11 02:26:12;;;;;;;;;;;;;;;;;;2114438;28;19924;-43
2021/11/11 02:27:13;;;;;;;;;;;;;;;;;;2117010;27;19931;-43
2021/11/11 02:28:14;;;;;;;;;;;;;;;;;;2121388;28;19923;-43
2021/11/11 02:29:15;;;;;;;;;;;;;;;;;;2123037;28;19960;-43
2021/11/11 02:30:16;;;;;;;;;;;;;;;;;;2122446;27;19930;-43
2021/11/11 02:31:17;;;;;;;;;;;;;;;;;;2122826;28;19924;-44
2021/11/11 02:32:18;;;;;;;;;;;;;;;;;;2124281;28;19924;-44
2021/11/11 02:33:19;;;;;;;;;;;;;;;;;;2123326;27;20369;-43
2021/11/11 02:34:20;;;;;;;;;;;;;;;;;;2124342;28;19931;-43
2021/11/11 02:35:21;;;;;;;;;;;;;;;;;;2124250;28;20343;-44
2021/11/11 02:36:21;;;;;;;;;;;;;;;;;;2124092;27;19980;-44
2021/11/11 02:37:25;;;;;;;;;;;;;;;;;;2115766;28;19923;-43
2021/11/11 02:38:25;;;;;;;;;;;;;;;;;;2116032;28;20007;-43
2021/11/11 02:39:26;;;;;;;;;;;;;;;;;;2122346;27;20336;-43
2021/11/11 02:40:27;;;;;;;;;;;;;;;;;;2124302;28;19992;-43
2021/11/11 02:41:28;;;;;;;;;;;;;;;;;;2123696;28;19927;-43
2021/11/11 02:42:29;;;;;;;;;;;;;;;;;;2122322;27;19968;-44
2021/11/11 02:43:31;;;;;;;;;;;;;;;;;;2124239;28;19923;-43
2021/11/11 02:44:31;;;;;;;;;;;;;;;;;;2122997;28;20508;-43
2021/11/11 02:45:32;;;;;;;;;;;;;;;;;;2121848;28;19972;-43
2021/11/11 02:46:33;;;;;;;;;;;;;;;;;;2124391;28;20291;-43
2021/11/11 02:47:34;;;;;;;;;;;;;;;;;;2120650;27;19927;-43
2021/11/11 02:48:35;;;;;;;;;;;;;;;;;;2124436;27;19923;-43
2021/11/11 02:49:36;;;;;;;;;;;;;;;;;;2124297;28;20291;-43
2021/11/11 02:50:37;;;;;;;;;;;;;;;;;;2123007;27;20328;-44
2021/11/11 02:51:38;;;;;;;;;;;;;;;;;;2124435;27;20435;-43
2021/11/11 02:52:39;;;;;;;;;;;;;;;;;;2124044;28;19923;-44
2021/11/11 02:53:40;;;;;;;;;;;;;;;;;;2123536;27;20368;-43
2021/11/11 02:54:41;;;;;;;;;;;;;;;;;;2120173;27;20555;-43
2021/11/11 02:55:42;;;;;;;;;;;;;;;;;;2115876;28;20019;-44
2021/11/11 02:56:42;;;;;;;;;;;;;;;;;;2119260;27;19946;-43
2021/11/11 02:57:43;;;;;;;;;;;;;;;;;;2123853;28;19923;-43
2021/11/11 02:58:44;;;;;;;;;;;;;;;;;;2124136;28;20380;-44
2021/11/11 02:59:45;;;;;;;;;;;;;;;;;;2121902;28;20007;-43
2021/11/11 03:00:46;;;;;;;;;;;;;;;;;;2131819;27;19930;-43
2021/11/11 03:01:47;;;;;;;;;;;;;;;;;;2132542;27;19927;-43
2021/11/11 03:02:49;;;;;;;;;;;;;;;;;;2125216;27;19979;-43
2021/11/11 03:03:50;;;;;;;;;;;;;;;;;;2123143;28;19923;-44
2021/11/11 03:04:50;;;;;;;;;;;;;;;;;;2124086;28;19923;-43
2021/11/11 03:05:51;;;;;;;;;;;;;;;;;;2124993;27;19927;-43
2021/11/11 03:06:52;;;;;;;;;;;;;;;;;;2115613;28;19959;-43
2021/11/11 03:07:53;;;;;;;;;;;;;;;;;;2115529;28;20014;-44
2021/11/11 03:08:54;;;;;;;;;;;;;;;;;;2121611;27;19969;-43
2021/11/11 03:09:55;;;;;;;;;;;;;;;;;;2124043;28;20364;-43
2021/11/11 03:10:56;;;;;;;;;;;;;;;;;;2124200;28;19927;-43
2021/11/11 03:11:58;;;;;;;;;;;;;;;;;;2123844;27;19923;-43
2021/11/11 03:12:59;;;;;;;;;;;;;;;;;;2115490;28;19923;-43
2021/11/11 03:13:59;;;;;;;;;;;;;;;;;;2115511;28;20015;-43
2021/11/11 03:15:00;;;;;;;;;;;;;;;;;;2123560;27;19939;-43
2021/11/11 03:16:01;;;;;;;;;;;;;;;;;;2115563;28;19928;-43
2021/11/11 03:17:02;;;;;;;;;;;;;;;;;;2115826;28;19924;-43
2021/11/11 03:18:03;;;;;;;;;;;;;;;;;;2118643;27;20039;-44
2021/11/11 03:19:04;;;;;;;;;;;;;;;;;;2115596;28;19927;-43
2021/11/11 03:20:04;;;;;;;;;;;;;;;;;;2118170;27;19931;-43
2021/11/11 03:21:06;;;;;;;;;;;;;;;;;;2122611;28;19949;-43
2021/11/11 03:22:06;;;;;;;;;;;;;;;;;;2124047;28;20006;-44
2021/11/11 03:23:07;;;;;;;;;;;;;;;;;;2123844;27;19924;-43
2021/11/11 03:24:08;;;;;;;;;;;;;;;;;;2119027;27;19924;-44
2021/11/11 03:25:09;;;;;;;;;;;;;;;;;;2115528;28;19977;-44
2021/11/11 03:26:09;;;;;;;;;;;;;;;;;;2119079;27;20464;-43
2021/11/11 03:27:10;;;;;;;;;;;;;;;;;;2123031;28;19931;-44
2021/11/11 03:28:11;;;;;;;;;;;;;;;;;;2124013;28;20312;-43
2021/11/11 03:29:12;;;;;;;;;;;;;;;;;;2122891;27;20029;-43
2021/11/11 03:30:13;;;;;;;;;;;;;;;;;;2123785;28;19923;-44
2021/11/11 03:31:14;;;;;;;;;;;;;;;;;;2123943;28;19927;-43
2021/11/11 03:32:15;;;;;;;;;;;;;;;;;;2124829;27;20317;-43
2021/11/11 03:33:16;;;;;;;;;;;;;;;;;;2115977;28;19923;-49
2021/11/11 03:34:18;;;;;;;;;;;;;;;;;;2115461;28;19967;-47
2021/11/11 03:35:19;;;;;;;;;;;;;;;;;;2120173;27;20432;-48
2021/11/11 03:36:20;;;;;;;;;;;;;;;;;;2124174;28;19923;-48
2021/11/11 03:37:22;;;;;;;;;;;;;;;;;;2123798;28;20302;-48
2021/11/11 03:38:22;;;;;;;;;;;;;;;;;;2121299;27;20436;-47
2021/11/11 03:39:24;;;;;;;;;;;;;;;;;;2123952;28;19930;-48
2021/11/11 03:40:25;;;;;;;;;;;;;;;;;;2123393;28;20014;-48
2021/11/11 03:41:25;;;;;;;;;;;;;;;;;;2124433;27;19923;-49
2021/11/11 03:42:26;;;;;;;;;;;;;;;;;;2131791;27;20003;-47
2021/11/11 03:43:27;;;;;;;;;;;;;;;;;;2131178;27;19976;-47
2021/11/11 03:44:28;;;;;;;;;;;;;;;;;;2124235;27;19923;-47
2021/11/11 03:45:29;;;;;;;;;;;;;;;;;;2123949;28;20010;-48
2021/11/11 03:46:30;;;;;;;;;;;;;;;;;;2123261;28;20006;-48
2021/11/11 03:47:31;;;;;;;;;;;;;;;;;;2126052;27;20277;-47
2021/11/11 03:48:31;;;;;;;;;;;;;;;;;;2132425;27;20044;-47
2021/11/11 03:49:32;;;;;;;;;;;;;;;;;;2129045;27;19923;-48
2021/11/11 03:50:33;;;;;;;;;;;;;;;;;;2122565;27;19924;-49
2021/11/11 03:51:34;;;;;;;;;;;;;;;;;;2115251;28;19923;-48
2021/11/11 03:52:35;;;;;;;;;;;;;;;;;;2115887;27;20019;-47
2021/11/11 03:53:36;;;;;;;;;;;;;;;;;;2123039;27;19924;-47
2021/11/11 03:54:36;;;;;;;;;;;;;;;;;;2123880;28;19924;-48
2021/11/11 03:55:37;;;;;;;;;;;;;;;;;;2123589;27;19930;-49
2021/11/11 03:56:40;;;;;;;;;;;;;;;;;;2122430;27;19923;-47
2021/11/11 03:57:41;;;;;;;;;;;;;;;;;;2123701;28;19923;-48
2021/11/11 03:58:45;;;;;;;;;;;;;;;;;;2121257;28;20272;-48
2021/11/11 03:59:45;;;;;;;;;;;;;;;;;;2123420;28;20018;-47
2021/11/11 04:00:46;;;;;;;;;;;;;;;;;;2123638;28;19935;-49
2021/11/11 04:01:47;;;;;;;;;;;;;;;;;;2124147;27;20293;-47
2021/11/11 04:02:48;;;;;;;;;;;;;;;;;;2115878;27;19924;-47
2021/11/11 04:03:50;;;;;;;;;;;;;;;;;;2115320;28;19924;-47
2021/11/11 04:04:51;;;;;;;;;;;;;;;;;;2117736;27;20021;-49
2021/11/11 04:05:51;;;;;;;;;;;;;;;;;;2131988;27;19927;-49
2021/11/11 04:06:52;;;;;;;;;;;;;;;;;;2132162;27;19930;-49
2021/11/11 04:07:53;;;;;;;;;;;;;;;;;;2123850;27;20330;-47
2021/11/11 04:08:54;;;;;;;;;;;;;;;;;;2132098;27;19969;-50
2021/11/11 04:09:55;;;;;;;;;;;;;;;;;;2132319;27;20049;-49
2021/11/11 04:10:56;;;;;;;;;;;;;;;;;;2122006;27;19992;-48
2021/11/11 04:11:58;;;;;;;;;;;;;;;;;;2115138;28;19933;-47
2021/11/11 04:12:59;;;;;;;;;;;;;;;;;;2115239;28;20107;-47
2021/11/11 04:14:00;;;;;;;;;;;;;;;;;;2123460;27;19931;-43
2021/11/11 04:15:01;;;;;;;;;;;;;;;;;;2132225;27;19928;-44
2021/11/11 04:16:02;;;;;;;;;;;;;;;;;;2131144;27;20405;-43
2021/11/11 04:17:03;;;;;;;;;;;;;;;;;;2123120;27;20022;-43
2021/11/11 04:18:04;;;;;;;;;;;;;;;;;;2115195;28;19930;-44
2021/11/11 04:19:05;;;;;;;;;;;;;;;;;;2115689;28;19959;-43
2021/11/11 04:20:05;;;;;;;;;;;;;;;;;;2122418;27;19946;-44
2021/11/11 04:21:06;;;;;;;;;;;;;;;;;;2115120;28;20299;-43
2021/11/11 04:22:07;;;;;;;;;;;;;;;;;;2115883;28;19932;-43
2021/11/11 04:23:08;;;;;;;;;;;;;;;;;;2122101;27;19923;-43
2021/11/11 04:24:09;;;;;;;;;;;;;;;;;;2123631;28;19927;-43
2021/11/11 04:25:15;;;;;;;;;;;;;;;;;;2122145;28;19924;-43
2021/11/11 04:26:20;;;;;;;;;;;;;;;;;;2118009;28;19959;-43
2021/11/11 04:27:26;;;;;;;;;;;;;;;;;;2115031;28;19962;-43
2021/11/11 04:28:29;;;;;;;;;;;;;;;;;;2118940;27;20014;-43
2021/11/11 04:29:32;;;;;;;;;;;;;;;;;;2122705;28;20013;-44
2021/11/11 04:30:34;;;;;;;;;;;;;;;;;;2123596;28;19929;-43
2021/11/11 04:31:39;;;;;;;;;;;;;;;;;;2121087;28;19923;-43
2021/11/11 04:32:40;;;;;;;;;;;;;;;;;;2115133;28;19992;-43
2021/11/11 04:33:43;;;;;;;;;;;;;;;;;;2115034;28;20423;-43
2021/11/11 04:34:46;;;;;;;;;;;;;;;;;;2123065;27;20019;-43
2021/11/11 04:35:51;;;;;;;;;;;;;;;;;;2114974;28;20401;-43
2021/11/11 04:38:21;;;;;;;;;;;;;;;;;;2118389;28;20034;-44
2021/11/11 04:39:42;;;;;;;;;;;;;;;;;;2123526;28;20064;-43
2021/11/11 04:42:23;;;;;;;;;;;;;;;;;;2105447;28;19966;-43
2021/11/11 04:43:45;;;;;;;;;;;;;;;;;;2122506;27;20007;-43
2021/11/11 04:44:56;;;;;;;;;;;;;;;;;;2115038;28;19970;-43
2021/11/11 04:46:26;;;;;;;;;;;;;;;;;;2115584;28;20034;-43
2021/11/11 04:47:38;;;;;;;;;;;;;;;;;;2122817;28;20300;-44
2021/11/11 04:50:30;;;;;;;;;;;;;;;;;;2126444;27;20018;-44
2021/11/11 04:53:01;;;;;;;;;;;;;;;;;;2115098;27;19931;-43
2021/11/11 04:59:46;;;;;;;;;;;;;;;;;;2114131;28;20011;-43
2021/11/11 05:01:09;;;;;;;;;;;;;;;;;;2118395;27;20001;-43
2021/11/11 05:02:33;;;;;;;;;;;;;;;;;;2114824;28;20001;-43
2021/11/11 05:03:34;;;;;;;;;;;;;;;;;;2120500;27;20288;-43
2021/11/11 05:04:35;;;;;;;;;;;;;;;;;;2116751;27;19924;-43
2021/11/11 05:05:36;;;;;;;;;;;;;;;;;;2114806;28;20011;-44
2021/11/11 05:06:37;;;;;;;;;;;;;;;;;;2118369;27;20005;-43
2021/11/11 05:07:38;;;;;;;;;;;;;;;;;;2123108;28;19923;-43
2021/11/11 05:08:39;;;;;;;;;;;;;;;;;;2123283;28;20333;-43
2021/11/11 05:09:39;;;;;;;;;;;;;;;;;;2121680;27;19924;-43
2021/11/11 05:10:41;;;;;;;;;;;;;;;;;;2131681;27;19946;-42
2021/11/11 05:11:42;;;;;;;;;;;;;;;;;;2131826;27;19933;-43
2021/11/11 05:12:43;;;;;;;;;;;;;;;;;;2124617;27;19923;-43
2021/11/11 05:13:44;;;;;;;;;;;;;;;;;;2114723;28;19924;-43
2021/11/11 05:14:45;;;;;;;;;;;;;;;;;;2114930;28;19928;-43
2021/11/11 05:15:46;;;;;;;;;;;;;;;;;;2120450;27;19977;-43
2021/11/11 05:16:47;;;;;;;;;;;;;;;;;;2123104;28;20022;-43
2021/11/11 05:17:48;;;;;;;;;;;;;;;;;;2122891;28;19923;-43
2021/11/11 05:18:48;;;;;;;;;;;;;;;;;;2122889;27;19932;-43
2021/11/11 05:19:49;;;;;;;;;;;;;;;;;;2131951;27;19923;-43
2021/11/11 05:20:50;;;;;;;;;;;;;;;;;;2130411;27;19929;-43
2021/11/11 05:21:51;;;;;;;;;;;;;;;;;;2123546;27;20359;-43
2021/11/11 05:22:52;;;;;;;;;;;;;;;;;;2131712;27;19927;-43
2021/11/11 05:23:54;;;;;;;;;;;;;;;;;;2129605;27;20406;-43
2021/11/11 05:24:54;;;;;;;;;;;;;;;;;;2117493;27;20358;-43
2021/11/11 05:25:55;;;;;;;;;;;;;;;;;;2114575;28;19927;-44
2021/11/11 05:26:57;;;;;;;;;;;;;;;;;;2118067;27;19992;-44
2021/11/11 05:27:58;;;;;;;;;;;;;;;;;;2121619;28;20447;-43
2021/11/11 05:28:59;;;;;;;;;;;;;;;;;;2123212;28;19971;-43
2021/11/11 05:30:03;;;;;;;;;;;;;;;;;;2119562;28;19965;-43
2021/11/11 05:31:05;;;;;;;;;;;;;;;;;;2130600;27;20015;-43
2021/11/11 05:32:06;;;;;;;;;;;;;;;;;;2131602;27;19933;-44
2021/11/11 05:33:07;;;;;;;;;;;;;;;;;;2126061;27;19955;-43
2021/11/11 05:34:08;;;;;;;;;;;;;;;;;;2114892;28;19924;-43
2021/11/11 05:35:09;;;;;;;;;;;;;;;;;;2114697;28;19923;-43
2021/11/11 05:36:10;;;;;;;;;;;;;;;;;;2120710;27;19923;-43
2021/11/11 05:37:12;;;;;;;;;;;;;;;;;;2122786;28;20372;-43
2021/11/11 05:38:13;;;;;;;;;;;;;;;;;;2123244;28;19969;-43
2021/11/11 05:39:13;;;;;;;;;;;;;;;;;;2120248;27;20368;-44
2021/11/11 05:40:14;;;;;;;;;;;;;;;;;;2123116;28;20386;-43
2021/11/11 05:41:15;;;;;;;;;;;;;;;;;;2122594;28;19962;-43
2021/11/11 05:42:16;;;;;;;;;;;;;;;;;;2123861;27;19982;-43
2021/11/11 05:43:17;;;;;;;;;;;;;;;;;;2131575;27;19987;-43
2021/11/11 05:44:18;;;;;;;;;;;;;;;;;;2130393;27;19923;-43
2021/11/11 05:45:19;;;;;;;;;;;;;;;;;;2118786;28;19930;-43
2021/11/11 05:46:20;;;;;;;;;;;;;;;;;;2114592;28;19973;-43
2021/11/11 05:47:21;;;;;;;;;;;;;;;;;;2114073;28;19924;-43
2021/11/11 05:48:21;;;;;;;;;;;;;;;;;;2120744;27;20439;-43
2021/11/11 05:49:22;;;;;;;;;;;;;;;;;;2123137;28;19937;-44
2021/11/11 05:50:23;;;;;;;;;;;;;;;;;;2121785;28;19923;-43
2021/11/11 05:51:24;;;;;;;;;;;;;;;;;;2126963;27;19923;-43
2021/11/11 05:52:25;;;;;;;;;;;;;;;;;;2131547;27;19929;-43
2021/11/11 05:53:26;;;;;;;;;;;;;;;;;;2126752;27;19926;-43
2021/11/11 05:54:27;;;;;;;;;;;;;;;;;;2122706;28;19928;-44
2021/11/11 05:55:27;;;;;;;;;;;;;;;;;;2122989;28;19951;-44
2021/11/11 05:56:28;;;;;;;;;;;;;;;;;;2119926;27;19927;-44
2021/11/11 05:57:30;;;;;;;;;;;;;;;;;;2122647;28;20255;-44
2021/11/11 05:58:31;;;;;;;;;;;;;;;;;;2123031;28;20407;-43
2021/11/11 05:59:32;;;;;;;;;;;;;;;;;;2121809;27;20010;-43
2021/11/11 06:00:33;;;;;;;;;;;;;;;;;;2122868;28;19955;-43
2021/11/11 06:01:35;;;;;;;;;;;;;;;;;;2123059;28;19923;-43
2021/11/11 06:02:36;;;;;;;;;;;;;;;;;;2120396;27;20287;-44
2021/11/11 06:03:37;;;;;;;;;;;;;;;;;;2121510;28;19923;-43
2021/11/11 06:04:37;;;;;;;;;;;;;;;;;;2123077;27;19984;-43
2021/11/11 06:05:41;;;;;;;;;;;;;;;;;;2123153;27;19923;-44
2021/11/11 06:06:42;;;;;;;;;;;;;;;;;;2132963;27;19934;-44
2021/11/11 06:07:43;;;;;;;;;;;;;;;;;;2132151;27;19968;-43
2021/11/11 06:08:43;;;;;;;;;;;;;;;;;;2120652;28;19962;-44
2021/11/11 06:09:44;;;;;;;;;;;;;;;;;;2115964;28;20027;-43
2021/11/11 06:10:45;;;;;;;;;;;;;;;;;;2116447;28;19924;-43
2021/11/11 06:11:46;;;;;;;;;;;;;;;;;;2123495;27;19930;-43
2021/11/11 06:12:47;;;;;;;;;;;;;;;;;;2124414;28;19924;-43
2021/11/11 06:13:48;;;;;;;;;;;;;;;;;;2123632;28;20402;-43
2021/11/11 06:14:48;;;;;;;;;;;;;;;;;;2122956;27;19923;-44
2021/11/11 06:15:51;;;;;;;;;;;;;;;;;;2124473;28;20276;-43
2021/11/11 06:16:52;;;;;;;;;;;;;;;;;;2122565;28;20439;-43
2021/11/11 06:17:55;;;;;;;;;;;;;;;;;;2127067;27;19930;-43
2021/11/11 06:18:56;;;;;;;;;;;;;;;;;;2132914;27;19934;-43
2021/11/11 06:19:57;;;;;;;;;;;;;;;;;;2128365;27;19923;-43
2021/11/11 06:21:00;;;;;;;;;;;;;;;;;;2122984;27;20010;-44
2021/11/11 06:22:01;;;;;;;;;;;;;;;;;;2124277;28;19930;-44
2021/11/11 06:23:02;;;;;;;;;;;;;;;;;;2123421;27;19959;-43
2021/11/11 06:24:02;;;;;;;;;;;;;;;;;;2122889;28;19970;-44
2021/11/11 06:25:03;;;;;;;;;;;;;;;;;;2124509;28;19931;-43
2021/11/11 06:26:04;;;;;;;;;;;;;;;;;;2124330;27;20360;-43
2021/11/11 06:27:05;;;;;;;;;;;;;;;;;;2118397;27;19924;-43
2021/11/11 06:28:06;;;;;;;;;;;;;;;;;;2115921;28;19977;-43
2021/11/11 06:29:07;;;;;;;;;;;;;;;;;;2118257;28;19965;-43
2021/11/11 06:30:08;;;;;;;;;;;;;;;;;;2132631;27;20002;-43
2021/11/11 06:31:09;;;;;;;;;;;;;;;;;;2132785;27;19927;-44
2021/11/11 06:32:10;;;;;;;;;;;;;;;;;;2124113;27;20378;-43
2021/11/11 06:33:30;;;;;;;;;;;;;;;;;;2124050;28;19923;-44
2021/11/11 06:34:31;;;;;;;;;;;;;;;;;;2123805;28;20313;-44
2021/11/11 06:35:32;;;;;;;;;;;;;;;;;;2121974;27;19935;-43
2021/11/11 06:36:33;;;;;;;;;;;;;;;;;;2115855;28;19977;-43
2021/11/11 06:37:34;;;;;;;;;;;;;;;;;;2116391;28;20371;-43
2021/11/11 06:38:35;;;;;;;;;;;;;;;;;;2124294;27;19966;-44
2021/11/11 06:39:37;;;;;;;;;;;;;;;;;;2124234;28;19927;-44
2021/11/11 06:40:39;;;;;;;;;;;;;;;;;;2122146;28;19931;-43
2021/11/11 06:41:40;;;;;;;;;;;;;;;;;;2121680;27;19930;-43
2021/11/11 06:42:40;;;;;;;;;;;;;;;;;;2115765;28;19930;-43
2021/11/11 06:43:42;;;;;;;;;;;;;;;;;;2118174;27;20055;-43
2021/11/11 06:44:46;;;;;;;;;;;;;;;;;;2130135;27;20361;-44
2021/11/11 06:45:47;;;;;;;;;;;;;;;;;;2132861;27;19969;-43
2021/11/11 06:46:48;;;;;;;;;;;;;;;;;;2125669;27;19924;-43
2021/11/11 06:47:49;;;;;;;;;;;;;;;;;;2122916;28;19931;-43
2021/11/11 06:48:50;;;;;;;;;;;;;;;;;;2124159;28;19924;-43
2021/11/11 06:49:51;;;;;;;;;;;;;;;;;;2123238;27;19956;-43
2021/11/11 06:50:52;;;;;;;;;;;;;;;;;;2124124;28;20018;-43
2021/11/11 06:51:53;;;;;;;;;;;;;;;;;;2124250;28;20002;-43
2021/11/11 06:52:53;;;;;;;;;;;;;;;;;;2123670;27;20022;-43
2021/11/11 06:53:54;;;;;;;;;;;;;;;;;;2115840;28;19970;-43
2021/11/11 06:54:55;;;;;;;;;;;;;;;;;;2115415;28;19924;-43
2021/11/11 06:55:56;;;;;;;;;;;;;;;;;;2125261;27;19927;-43
2021/11/11 06:56:57;;;;;;;;;;;;;;;;;;2132679;27;20003;-43
2021/11/11 06:58:00;;;;;;;;;;;;;;;;;;2130897;27;19927;-43
2021/11/11 06:59:00;;;;;;;;;;;;;;;;;;2126223;27;20631;-43
2021/11/11 07:00:01;;;;;;;;;;;;;;;;;;2132742;27;20402;-43
2021/11/11 07:01:02;;;;;;;;;;;;;;;;;;2129454;27;19927;-43
2021/11/11 07:02:03;;;;;;;;;;;;;;;;;;2122746;27;20288;-43
2021/11/11 07:03:04;;;;;;;;;;;;;;;;;;2116871;28;19924;-43
2021/11/11 07:04:05;;;;;;;;;;;;;;;;;;2122005;27;19927;-43
2021/11/11 07:05:06;;;;;;;;;;;;;;;;;;2123448;27;19953;-43
2021/11/11 07:06:07;;;;;;;;;;;;;;;;;;2124034;28;19931;-43
2021/11/11 07:07:07;;;;;;;;;;;;;;;;;;2122578;27;19976;-44
2021/11/11 07:08:10;;;;;;;;;;;;;;;;;;2126268;27;19930;-43
2021/11/11 07:09:11;;;;;;;;;;;;;;;;;;2124055;28;20010;-43
2021/11/11 07:10:12;;;;;;;;;;;;;;;;;;2123004;27;19934;-43
2021/11/11 07:11:13;;;;;;;;;;;;;;;;;;2122622;28;19923;-43
2021/11/11 07:12:14;;;;;;;;;;;;;;;;;;2123975;28;20330;-43